Prague, Czech Republic

8:34 AM CET on February 06, 2016 (GMT +0100)
Zlicinske zahrady | | Change Station
CLOSE
Current Station
Personal Weather Station
Location: Česká Republika,
Elevation: 1211 ft
Nearby Weather Stations

Elev 1211 ft 50.06 °N, 14.29 °E | Updated 4 minutes ago

Clear
Clear
37.0 °F
Feels Like 33 °F
N
4.5
Wind Variable Wind from South
Gusts 6.0 mph

Today
High -- | Low -- °F
--% Chance of Precip.
Yesterday
High -- | Low -- °F
Precip. -- in
Pressure 30.15 in
Visibility -9999.0 miles
Clouds
Windchill 33 °F
Dew Point 32 °F
Humidity 80%
Rainfall 0.00 in
Snow Depth Not available.
7:30 AM 5:04 PM
Waning Crescent, 7% visible
METAR LKPR 060730Z 14006KT CAVOK 02/01 Q1021 NOSIG
Pressure 30.15 in
Visibility -9999.0 miles
Clouds
Windchill 33 °F
Dew Point 32 °F
Humidity 80%
Rainfall 0.00 in
Snow Depth Not available.
7:30 AM 5:04 PM
Waning Crescent, 7% visible
METAR LKPR 060730Z 14006KT CAVOK 02/01 Q1021 NOSIG

10-Day Weather Forecast

Almanac

Astronomy

Feb. 06, 2016 Rise Set
Actual Time
Civil Twilight
Nautical Twilight
Astronomical Twilight
Moon
Length of Visible Light
Length of Day
Tomorrow will be .
, % of the Moon is Illuminated

Today's Extremes

Country Highs Country Lows

Community

WunderPhotos

Upload Photos

1,890,933 photos uploaded!

WunderBlog® & News

Nearby

Air Quality

  Air Quality AQ Index Pollutant
Not available.

Snow Depth

Station Depth Elevation

Earthquake Activity

City Distance Mag. Time & Date
Minimum magnitude displayed is 2.5.

Coastal Water Temperatures

Place Temperature

Stations

Nearby Weather Stations

Station Location Temp. Windchill Dew Point Humidity Wind Precip. Elev Updated Type